Time;durP1;ratioP1;P1;durP2;ratioP2;P2;SDS_P1;SDS_P2;PMS_P1;PMS_P2;Temp;Humidity;BMP_temperature;BMP_pressure;BME280_temperature;BME280_humidity;BME280_pressure;Samples;Min_cycle;Max_cycle;Signal;HPM_P1;HPM_P2
2021/12/16 00:05:57;;;;;;;21.80;20.60;;;;;;;;;;5050046;28;20284;-79
2021/12/16 00:08:32;;;;;;;27.07;25.47;;;;;;;;;;5050836;28;20614;-79
2021/12/16 00:11:08;;;;;;;22.10;20.90;;;;;;;;;;5050141;28;20201;-79
2021/12/16 00:19:50;;;;;;;27.50;25.67;;;;;;;;;;5003987;28;20207;-79
2021/12/16 00:31:03;;;;;;;24.10;21.20;;;;;;;;;;5050224;28;20233;-80
2021/12/16 00:33:35;;;;;;;25.57;23.60;;;;;;;;;;5049323;28;20198;-79
2021/12/16 00:36:04;;;;;;;23.47;21.13;;;;;;;;;;5049752;28;20237;-79
2021/12/16 00:38:32;;;;;;;21.40;20.20;;;;;;;;;;5049579;28;20249;-80
2021/12/16 00:41:00;;;;;;;24.00;22.37;;;;;;;;;;5049622;28;20199;-80
2021/12/16 00:43:34;;;;;;;20.10;18.93;;;;;;;;;;5086490;28;20197;-79
2021/12/16 00:46:13;;;;;;;21.57;20.33;;;;;;;;;;5092261;28;20247;-80
2021/12/16 00:49:03;;;;;;;27.67;26.03;;;;;;;;;;5092227;28;20185;-80
2021/12/16 00:54:17;;;;;;;23.47;22.10;;;;;;;;;;5092215;28;20207;-80
2021/12/16 00:56:45;;;;;;;22.37;21.10;;;;;;;;;;5092284;28;20221;-79
2021/12/16 00:59:13;;;;;;;21.73;20.47;;;;;;;;;;5091674;28;20667;-80
2021/12/16 01:01:47;;;;;;;23.20;21.80;;;;;;;;;;5091991;28;20666;-80
2021/12/16 01:04:47;;;;;;;27.13;25.37;;;;;;;;;;5092847;28;20225;-81
2021/12/16 01:07:24;;;;;;;24.03;22.53;;;;;;;;;;5096151;28;20205;-81
2021/12/16 01:34:58;;;;;;;22.80;21.43;;;;;;;;;;5095454;28;20242;-81
2021/12/16 01:40:24;;;;;;;20.67;19.47;;;;;;;;;;5060529;28;20278;-81
2021/12/16 01:51:15;;;;;;;22.37;21.07;;;;;;;;;;5094870;28;20274;-82
2021/12/16 01:56:41;;;;;;;20.90;19.70;;;;;;;;;;5092038;28;20225;-82
2021/12/16 01:59:16;;;;;;;22.80;21.50;;;;;;;;;;5094878;28;20271;-83
2021/12/16 02:01:43;;;;;;;23.63;22.17;;;;;;;;;;5094842;28;20185;-82
2021/12/16 02:04:16;;;;;;;23.47;22.07;;;;;;;;;;5094342;28;20656;-82
2021/12/16 02:06:59;;;;;;;20.93;19.73;;;;;;;;;;5094773;28;20267;-82
2021/12/16 02:09:31;;;;;;;20.87;19.67;;;;;;;;;;5094962;28;20193;-83
2021/12/16 02:12:06;;;;;;;23.10;21.13;;;;;;;;;;5094700;28;20209;-83
2021/12/16 02:28:34;;;;;;;19.10;18.20;;;;;;;;;;5094380;28;20308;-81
2021/12/16 02:31:22;;;;;;;22.37;21.27;;;;;;;;;;5094010;28;20189;-82
2021/12/16 02:36:30;;;;;;;23.23;22.13;;;;;;;;;;5094442;28;20756;-82
2021/12/16 02:38:58;;;;;;;20.50;19.60;;;;;;;;;;5094168;28;20214;-82
2021/12/16 02:41:26;;;;;;;20.20;19.30;;;;;;;;;;5094308;28;20200;-82
2021/12/16 02:49:20;;;;;;;20.57;19.57;;;;;;;;;;5093789;28;20181;-82
2021/12/16 02:51:48;;;;;;;23.43;22.13;;;;;;;;;;5093929;28;20225;-82
2021/12/16 02:54:16;;;;;;;23.07;21.83;;;;;;;;;;5093554;28;20729;-83
2021/12/16 02:56:43;;;;;;;24.93;23.63;;;;;;;;;;5093364;28;20312;-83
2021/12/16 02:59:10;;;;;;;23.30;21.90;;;;;;;;;;5094033;28;20198;-82
2021/12/16 03:01:38;;;;;;;24.73;23.43;;;;;;;;;;5093446;28;20199;-82
2021/12/16 03:04:07;;;;;;;25.23;23.93;;;;;;;;;;5093357;28;20283;-83
2021/12/16 03:06:35;;;;;;;27.80;26.00;;;;;;;;;;5093632;28;20197;-82
2021/12/16 03:09:05;;;;;;;25.10;23.60;;;;;;;;;;5093490;28;20216;-82
2021/12/16 03:11:41;;;;;;;26.23;23.93;;;;;;;;;;5093619;28;20193;-82
2021/12/16 03:14:25;;;;;;;26.43;24.73;;;;;;;;;;5093669;28;20185;-83
2021/12/16 03:17:06;;;;;;;26.40;24.97;;;;;;;;;;5093842;28;20224;-83
2021/12/16 03:19:45;;;;;;;27.27;25.77;;;;;;;;;;5093507;28;20216;-83
2021/12/16 03:22:22;;;;;;;23.03;21.83;;;;;;;;;;5093814;28;20182;-81
2021/12/16 03:36:05;;;;;;;25.23;23.73;;;;;;;;;;5093292;28;20676;-83
2021/12/16 03:38:32;;;;;;;23.47;22.13;;;;;;;;;;5092707;28;20225;-82
2021/12/16 03:41:01;;;;;;;26.33;24.23;;;;;;;;;;5093034;28;20204;-82
2021/12/16 03:43:29;;;;;;;25.40;24.03;;;;;;;;;;5092631;28;20233;-81
2021/12/16 03:48:51;;;;;;;23.87;22.67;;;;;;;;;;5044724;28;20190;-82
2021/12/16 03:51:19;;;;;;;25.53;24.23;;;;;;;;;;5092805;28;20297;-82
2021/12/16 03:53:49;;;;;;;23.90;22.73;;;;;;;;;;5092767;28;20220;-82
2021/12/16 03:56:18;;;;;;;25.83;24.33;;;;;;;;;;5092336;28;20695;-83
2021/12/16 03:58:44;;;;;;;28.77;26.90;;;;;;;;;;5092469;28;20607;-81
2021/12/16 04:01:13;;;;;;;26.70;24.57;;;;;;;;;;5092623;28;20219;-81
2021/12/16 04:03:40;;;;;;;26.57;25.10;;;;;;;;;;5092416;28;20198;-81
2021/12/16 04:06:06;;;;;;;28.03;26.43;;;;;;;;;;5092288;28;20647;-82
2021/12/16 04:08:33;;;;;;;25.03;23.73;;;;;;;;;;5092568;28;20216;-82
2021/12/16 04:11:05;;;;;;;25.17;23.87;;;;;;;;;;5092400;28;20242;-83
2021/12/16 04:13:41;;;;;;;23.60;22.40;;;;;;;;;;5092584;28;20289;-83
2021/12/16 04:16:08;;;;;;;24.67;23.27;;;;;;;;;;5092392;28;20285;-82
2021/12/16 04:18:35;;;;;;;24.37;23.00;;;;;;;;;;5092463;28;20570;-82
2021/12/16 04:21:02;;;;;;;23.73;22.60;;;;;;;;;;5092430;28;20281;-83
2021/12/16 04:23:28;;;;;;;23.57;22.47;;;;;;;;;;5092345;28;20664;-82
2021/12/16 04:25:55;;;;;;;23.40;22.37;;;;;;;;;;5092390;28;20664;-82
2021/12/16 04:28:23;;;;;;;25.80;24.07;;;;;;;;;;5092296;28;20194;-81
2021/12/16 04:30:52;;;;;;;23.87;22.67;;;;;;;;;;5092133;28;20198;-83
2021/12/16 04:33:19;;;;;;;23.43;22.23;;;;;;;;;;5092057;28;20196;-82
2021/12/16 04:35:46;;;;;;;28.77;26.60;;;;;;;;;;5092493;28;20276;-83
2021/12/16 04:38:13;;;;;;;24.07;22.97;;;;;;;;;;5093292;28;20653;-81
2021/12/16 04:40:44;;;;;;;25.27;23.97;;;;;;;;;;5096305;28;20229;-81
2021/12/16 04:43:17;;;;;;;25.07;23.57;;;;;;;;;;5096653;28;20281;-82
2021/12/16 04:45:44;;;;;;;24.30;23.10;;;;;;;;;;5096049;28;20192;-80
2021/12/16 04:48:13;;;;;;;23.80;22.63;;;;;;;;;;5096213;28;20228;-83
2021/12/16 04:50:39;;;;;;;26.80;25.10;;;;;;;;;;5096142;28;20227;-81
2021/12/16 04:53:06;;;;;;;24.20;23.07;;;;;;;;;;5096169;28;20640;-82
2021/12/16 04:55:33;;;;;;;25.57;23.80;;;;;;;;;;5096049;28;20221;-82
2021/12/16 04:58:00;;;;;;;27.53;25.63;;;;;;;;;;5096032;28;20225;-81
2021/12/16 05:00:27;;;;;;;25.87;24.17;;;;;;;;;;5096907;28;20631;-82
2021/12/16 05:02:53;;;;;;;26.53;25.13;;;;;;;;;;5095884;28;20225;-83
2021/12/16 05:05:22;;;;;;;25.27;23.77;;;;;;;;;;5095612;28;20230;-81
2021/12/16 05:07:48;;;;;;;25.33;24.10;;;;;;;;;;5095913;28;20197;-77
2021/12/16 05:10:17;;;;;;;22.57;21.47;;;;;;;;;;5095612;28;20207;-83
2021/12/16 05:12:46;;;;;;;21.97;20.97;;;;;;;;;;5096008;28;20228;-83
2021/12/16 05:15:14;;;;;;;22.00;20.97;;;;;;;;;;5095419;28;20620;-78
2021/12/16 05:17:43;;;;;;;22.27;21.07;;;;;;;;;;5095389;28;20320;-82
2021/12/16 05:20:11;;;;;;;21.67;20.67;;;;;;;;;;5095257;28;20596;-83
2021/12/16 05:25:34;;;;;;;22.53;21.37;;;;;;;;;;5095986;28;20185;-83
2021/12/16 05:28:01;;;;;;;20.90;20.00;;;;;;;;;;5095826;28;20212;-82
2021/12/16 05:30:28;;;;;;;24.67;23.50;;;;;;;;;;5095428;28;20226;-81
2021/12/16 05:32:55;;;;;;;24.93;23.73;;;;;;;;;;5095553;28;20247;-83
2021/12/16 05:35:23;;;;;;;26.97;25.47;;;;;;;;;;5094987;28;20647;-82
2021/12/16 05:37:51;;;;;;;25.23;24.03;;;;;;;;;;5095269;28;20261;-83
2021/12/16 05:40:23;;;;;;;26.37;24.97;;;;;;;;;;5095309;28;20619;-82
2021/12/16 05:42:50;;;;;;;26.73;25.13;;;;;;;;;;5095252;28;20186;-82
2021/12/16 05:45:18;;;;;;;26.63;25.07;;;;;;;;;;5095026;28;20196;-83
2021/12/16 05:47:44;;;;;;;25.23;24.03;;;;;;;;;;5095274;28;20289;-83
2021/12/16 05:50:11;;;;;;;26.17;24.67;;;;;;;;;;5094077;28;20198;-84
2021/12/16 05:52:39;;;;;;;25.77;24.47;;;;;;;;;;5094944;28;20775;-84
2021/12/16 05:55:07;;;;;;;27.13;25.30;;;;;;;;;;5095030;28;20194;-83
2021/12/16 05:57:34;;;;;;;24.90;23.70;;;;;;;;;;5094534;28;20769;-83
2021/12/16 06:00:01;;;;;;;24.63;23.43;;;;;;;;;;5095185;28;20226;-82
2021/12/16 06:02:28;;;;;;;23.03;21.73;;;;;;;;;;5094759;28;20698;-83
2021/12/16 06:04:54;;;;;;;19.43;18.63;;;;;;;;;;5094334;28;20316;-84
2021/12/16 06:07:21;;;;;;;20.07;19.17;;;;;;;;;;5094884;28;20198;-82
2021/12/16 06:09:48;;;;;;;21.80;20.50;;;;;;;;;;5094698;28;20198;-82
2021/12/16 06:12:16;;;;;;;21.90;20.53;;;;;;;;;;5094801;28;20248;-83
2021/12/16 06:14:54;;;;;;;20.80;19.90;;;;;;;;;;5094503;28;20656;-83
2021/12/16 06:26:26;;;;;;;20.43;19.43;;;;;;;;;;5095032;28;20189;-83
2021/12/16 06:28:48;;;;;;;24.00;22.50;;;;;;;;;;5095290;28;20251;-80
2021/12/16 06:31:16;;;;;;;23.73;22.33;;;;;;;;;;5094386;28;20220;-84
2021/12/16 06:33:43;;;;;;;21.33;20.23;;;;;;;;;;5094418;28;20200;-82
2021/12/16 06:36:10;;;;;;;23.60;22.20;;;;;;;;;;5093831;28;20683;-82
2021/12/16 06:38:36;;;;;;;21.93;20.73;;;;;;;;;;5094237;28;20236;-83
2021/12/16 06:41:03;;;;;;;24.63;23.20;;;;;;;;;;5093820;28;20198;-83
2021/12/16 06:43:31;;;;;;;21.53;20.43;;;;;;;;;;5093782;28;20205;-81
2021/12/16 06:46:02;;;;;;;21.80;20.73;;;;;;;;;;5093914;28;20196;-83
2021/12/16 06:48:32;;;;;;;21.07;20.00;;;;;;;;;;5094010;28;20198;-82
2021/12/16 06:51:00;;;;;;;22.03;20.73;;;;;;;;;;5094277;28;20639;-82
2021/12/16 06:53:31;;;;;;;22.80;21.03;;;;;;;;;;5093886;28;20200;-83
2021/12/16 06:56:05;;;;;;;21.07;19.97;;;;;;;;;;5094363;28;20185;-81
2021/12/16 06:58:37;;;;;;;26.43;25.03;;;;;;;;;;5093868;28;20216;-83
2021/12/16 07:01:12;;;;;;;22.57;21.20;;;;;;;;;;5093525;28;20664;-83
2021/12/16 07:03:47;;;;;;;21.57;20.57;;;;;;;;;;5093269;28;20277;-83
2021/12/16 07:06:21;;;;;;;26.73;25.33;;;;;;;;;;5093292;28;20189;-83
2021/12/16 07:08:49;;;;;;;26.57;25.27;;;;;;;;;;5093569;28;20236;-82
2021/12/16 07:11:16;;;;;;;26.33;25.03;;;;;;;;;;5093636;28;20228;-84
2021/12/16 07:13:52;;;;;;;25.30;24.03;;;;;;;;;;5093441;28;20229;-80
2021/12/16 07:16:21;;;;;;;19.83;18.93;;;;;;;;;;5093449;28;20190;-83
2021/12/16 07:18:47;;;;;;;19.73;18.73;;;;;;;;;;5093515;28;20336;-84
2021/12/16 07:21:14;;;;;;;24.00;22.80;;;;;;;;;;5093464;28;20198;-83
2021/12/16 07:23:41;;;;;;;21.87;20.77;;;;;;;;;;5093185;28;20251;-81
2021/12/16 07:26:07;;;;;;;23.80;22.17;;;;;;;;;;5093638;28;20190;-83
2021/12/16 07:28:34;;;;;;;22.20;20.90;;;;;;;;;;5093091;28;20225;-79
2021/12/16 07:31:01;;;;;;;24.07;22.57;;;;;;;;;;5093602;28;20251;-80
2021/12/16 07:33:29;;;;;;;22.10;21.00;;;;;;;;;;5093255;28;20641;-83
2021/12/16 07:35:56;;;;;;;22.53;21.33;;;;;;;;;;5093311;28;20255;-84
2021/12/16 07:38:23;;;;;;;22.83;21.73;;;;;;;;;;5093220;28;20317;-78
2021/12/16 07:40:52;;;;;;;22.90;21.43;;;;;;;;;;5093358;28;20229;-84
2021/12/16 07:43:40;;;;;;;23.60;22.20;;;;;;;;;;5093228;28;20574;-84
2021/12/16 07:46:07;;;;;;;21.70;20.60;;;;;;;;;;5093061;28;20182;-82
2021/12/16 07:48:35;;;;;;;23.50;22.23;;;;;;;;;;5092681;28;20258;-82
2021/12/16 07:51:03;;;;;;;23.93;22.63;;;;;;;;;;5093282;28;20225;-81
2021/12/16 07:53:31;;;;;;;22.27;21.17;;;;;;;;;;5092717;28;20629;-82
2021/12/16 07:55:58;;;;;;;20.90;19.90;;;;;;;;;;5093210;28;20194;-82
2021/12/16 07:58:25;;;;;;;21.60;20.50;;;;;;;;;;5092927;28;20638;-81
2021/12/16 08:00:52;;;;;;;21.10;20.10;;;;;;;;;;5093043;28;20197;-82
2021/12/16 08:03:19;;;;;;;21.57;20.40;;;;;;;;;;5092747;28;20223;-81
2021/12/16 08:05:51;;;;;;;23.33;22.13;;;;;;;;;;5092282;28;20225;-80
2021/12/16 08:08:18;;;;;;;22.97;21.77;;;;;;;;;;5093256;28;20225;-81
2021/12/16 08:10:45;;;;;;;23.43;22.23;;;;;;;;;;5092566;28;20273;-81
2021/12/16 08:13:13;;;;;;;23.30;22.17;;;;;;;;;;5092070;28;20202;-81
2021/12/16 08:15:40;;;;;;;24.57;23.27;;;;;;;;;;5092196;28;20240;-80
2021/12/16 08:18:07;;;;;;;22.17;21.07;;;;;;;;;;5092369;28;20313;-80
2021/12/16 08:20:34;;;;;;;23.43;22.23;;;;;;;;;;5092270;28;20247;-80
2021/12/16 08:23:02;;;;;;;23.40;22.20;;;;;;;;;;5092994;28;20194;-79
2021/12/16 08:25:29;;;;;;;23.60;22.40;;;;;;;;;;5092074;28;20243;-79
2021/12/16 08:27:57;;;;;;;22.13;20.97;;;;;;;;;;5092337;28;20198;-80
2021/12/16 08:30:26;;;;;;;24.43;23.13;;;;;;;;;;5092028;28;20198;-79
2021/12/16 08:32:52;;;;;;;24.00;22.63;;;;;;;;;;5092289;28;20284;-80
2021/12/16 08:35:19;;;;;;;21.40;20.30;;;;;;;;;;5092237;28;20216;-79
2021/12/16 08:37:46;;;;;;;23.50;22.20;;;;;;;;;;5091900;28;20580;-79
2021/12/16 08:40:16;;;;;;;24.50;23.20;;;;;;;;;;5092271;28;20284;-79
2021/12/16 08:42:43;;;;;;;23.03;21.83;;;;;;;;;;5092562;28;20274;-78
2021/12/16 08:45:11;;;;;;;23.10;21.90;;;;;;;;;;5091915;28;20230;-80
2021/12/16 08:47:38;;;;;;;24.70;23.40;;;;;;;;;;5092410;28;20233;-79
2021/12/16 08:50:06;;;;;;;22.07;21.00;;;;;;;;;;5092217;28;20236;-80
2021/12/16 08:52:33;;;;;;;23.50;22.30;;;;;;;;;;5091869;28;20198;-79
2021/12/16 08:55:00;;;;;;;21.00;20.00;;;;;;;;;;5092149;28;20225;-78
2021/12/16 08:57:28;;;;;;;23.13;21.70;;;;;;;;;;5092040;28;20312;-81
2021/12/16 08:59:55;;;;;;;22.70;21.50;;;;;;;;;;5092004;28;20255;-77
2021/12/16 09:02:23;;;;;;;23.33;22.23;;;;;;;;;;5091777;28;20229;-77
2021/12/16 09:04:50;;;;;;;23.40;22.20;;;;;;;;;;5091670;28;20225;-76
2021/12/16 09:07:17;;;;;;;23.70;22.40;;;;;;;;;;5091715;28;20194;-76
2021/12/16 09:09:45;;;;;;;21.87;20.87;;;;;;;;;;5091695;28;20243;-76
2021/12/16 09:12:37;;;;;;;22.07;21.07;;;;;;;;;;5091935;28;20250;-77
2021/12/16 09:15:05;;;;;;;22.43;21.23;;;;;;;;;;5091692;28;20649;-76
2021/12/16 09:17:32;;;;;;;23.93;22.73;;;;;;;;;;5092128;28;20229;-76
2021/12/16 09:19:58;;;;;;;24.93;23.73;;;;;;;;;;5091872;28;20281;-76
2021/12/16 09:22:26;;;;;;;25.30;23.83;;;;;;;;;;5091524;28;20197;-75
2021/12/16 09:24:53;;;;;;;24.83;23.43;;;;;;;;;;5092519;28;20193;-76
2021/12/16 09:27:20;;;;;;;25.23;23.83;;;;;;;;;;5095515;28;20194;-75
2021/12/16 09:29:47;;;;;;;25.87;23.67;;;;;;;;;;5095159;28;20737;-77
2021/12/16 09:32:16;;;;;;;23.77;22.43;;;;;;;;;;5095389;28;20222;-77
2021/12/16 09:34:44;;;;;;;24.93;23.63;;;;;;;;;;5095105;28;20189;-76
2021/12/16 09:37:10;;;;;;;23.90;22.57;;;;;;;;;;5095782;28;20208;-76
2021/12/16 09:39:37;;;;;;;23.40;22.20;;;;;;;;;;5094994;28;20656;-76
2021/12/16 09:42:07;;;;;;;22.30;21.30;;;;;;;;;;5095194;28;20190;-76
2021/12/16 09:44:36;;;;;;;22.30;21.30;;;;;;;;;;5095454;28;20202;-76
2021/12/16 09:47:05;;;;;;;21.73;20.73;;;;;;;;;;5095201;28;20206;-76
2021/12/16 09:49:33;;;;;;;21.53;20.33;;;;;;;;;;5095192;28;20272;-78
2021/12/16 09:52:01;;;;;;;19.80;18.90;;;;;;;;;;5095077;28;20659;-77
2021/12/16 09:54:29;;;;;;;23.67;22.27;;;;;;;;;;5094715;28;20280;-76
2021/12/16 09:56:57;;;;;;;20.90;19.90;;;;;;;;;;5094933;28;20262;-76
2021/12/16 09:59:25;;;;;;;21.43;20.43;;;;;;;;;;5094839;28;20243;-74
2021/12/16 10:01:52;;;;;;;20.73;19.80;;;;;;;;;;5094823;28;20614;-76
2021/12/16 10:04:21;;;;;;;21.57;20.57;;;;;;;;;;5094304;28;20255;-77
2021/12/16 10:06:50;;;;;;;24.80;23.40;;;;;;;;;;5094889;28;20221;-77
2021/12/16 10:09:17;;;;;;;25.43;23.97;;;;;;;;;;5094849;28;20251;-75
2021/12/16 10:11:45;;;;;;;25.07;23.23;;;;;;;;;;5094683;28;20245;-77
2021/12/16 10:14:33;;;;;;;22.80;21.60;;;;;;;;;;5094613;28;20194;-76
2021/12/16 10:19:44;;;;;;;22.40;21.30;;;;;;;;;;5094359;28;20189;-76
2021/12/16 10:22:21;;;;;;;24.67;22.83;;;;;;;;;;5094338;28;20653;-78
2021/12/16 10:24:48;;;;;;;21.03;19.93;;;;;;;;;;5094472;28;20185;-76
2021/12/16 10:27:16;;;;;;;22.70;21.60;;;;;;;;;;5095496;28;20189;-76
2021/12/16 10:29:45;;;;;;;22.37;21.17;;;;;;;;;;5094304;28;20198;-76
2021/12/16 10:32:26;;;;;;;23.43;22.13;;;;;;;;;;5094329;28;20190;-76
2021/12/16 10:34:56;;;;;;;25.53;23.83;;;;;;;;;;5094061;28;20194;-76
2021/12/16 10:37:30;;;;;;;23.73;22.40;;;;;;;;;;5093751;28;20198;-75
2021/12/16 10:40:20;;;;;;;20.20;19.30;;;;;;;;;;5094146;28;20185;-77
2021/12/16 10:42:47;;;;;;;22.03;20.93;;;;;;;;;;5094441;28;20198;-76
2021/12/16 10:45:26;;;;;;;26.70;24.90;;;;;;;;;;5093782;28;20229;-76
2021/12/16 10:48:12;;;;;;;21.43;20.17;;;;;;;;;;5094203;28;20208;-75
2021/12/16 10:51:06;;;;;;;22.47;21.37;;;;;;;;;;5093899;28;20221;-76
2021/12/16 10:53:59;;;;;;;21.03;20.03;;;;;;;;;;5068916;28;20241;-75
2021/12/16 10:56:29;;;;;;;23.57;21.90;;;;;;;;;;5093859;28;20204;-77
2021/12/16 10:58:57;;;;;;;20.37;19.37;;;;;;;;;;5093710;28;20271;-76
2021/12/16 11:01:37;;;;;;;21.23;19.87;;;;;;;;;;5093592;28;20702;-74
2021/12/16 11:04:04;;;;;;;21.10;20.10;;;;;;;;;;5093340;28;20308;-75
2021/12/16 11:06:33;;;;;;;25.10;23.50;;;;;;;;;;5093372;28;20229;-74
2021/12/16 11:09:14;;;;;;;25.00;23.40;;;;;;;;;;5093301;28;20194;-75
2021/12/16 11:11:42;;;;;;;22.20;21.10;;;;;;;;;;5093194;28;20221;-79
2021/12/16 11:14:09;;;;;;;24.17;22.80;;;;;;;;;;5093479;28;20197;-76
2021/12/16 11:16:37;;;;;;;23.40;22.30;;;;;;;;;;5093115;28;20683;-75
2021/12/16 11:19:05;;;;;;;26.37;24.67;;;;;;;;;;5092903;28;20225;-76
2021/12/16 11:21:39;;;;;;;23.17;22.03;;;;;;;;;;5093504;28;20202;-76
2021/12/16 11:24:21;;;;;;;23.87;22.70;;;;;;;;;;5093013;28;20225;-76
2021/12/16 11:26:49;;;;;;;22.30;21.20;;;;;;;;;;5093008;28;20220;-76
2021/12/16 11:29:17;;;;;;;22.37;21.27;;;;;;;;;;5093174;28;20230;-77
2021/12/16 11:31:45;;;;;;;23.30;22.20;;;;;;;;;;5093256;28;20190;-76
2021/12/16 11:34:11;;;;;;;24.77;23.07;;;;;;;;;;5093180;28;20233;-74
2021/12/16 11:36:40;;;;;;;19.30;18.40;;;;;;;;;;5092691;28;20194;-75
2021/12/16 11:39:08;;;;;;;22.67;21.40;;;;;;;;;;5092947;28;20229;-75
2021/12/16 11:41:36;;;;;;;20.03;19.03;;;;;;;;;;5092622;28;20229;-75
2021/12/16 11:44:08;;;;;;;19.07;18.27;;;;;;;;;;5092940;28;20224;-75
2021/12/16 11:46:36;;;;;;;19.43;18.57;;;;;;;;;;5092537;28;20664;-75
2021/12/16 11:49:04;;;;;;;22.17;20.97;;;;;;;;;;5092210;28;20232;-75
2021/12/16 11:51:33;;;;;;;23.33;22.03;;;;;;;;;;5092552;28;20281;-74
2021/12/16 11:54:01;;;;;;;19.30;18.40;;;;;;;;;;5092517;28;20233;-75
2021/12/16 11:56:37;;;;;;;22.47;20.63;;;;;;;;;;5092457;28;20240;-75
2021/12/16 11:59:05;;;;;;;23.30;22.00;;;;;;;;;;5092478;28;20265;-75
2021/12/16 12:01:33;;;;;;;22.73;21.57;;;;;;;;;;5092729;28;20629;-75
2021/12/16 12:04:02;;;;;;;22.53;21.37;;;;;;;;;;5092076;28;20265;-82
2021/12/16 12:06:29;;;;;;;25.47;23.97;;;;;;;;;;5092687;28;20595;-75
2021/12/16 12:08:58;;;;;;;22.67;21.23;;;;;;;;;;5092587;28;20280;-77
2021/12/16 12:11:27;;;;;;;23.27;22.13;;;;;;;;;;5092823;28;20197;-76
2021/12/16 12:13:56;;;;;;;22.97;21.87;;;;;;;;;;5092215;28;20202;-76
2021/12/16 12:16:26;;;;;;;21.83;20.83;;;;;;;;;;5092240;28;20194;-75
2021/12/16 12:18:55;;;;;;;24.13;22.93;;;;;;;;;;5092425;28;20302;-76
2021/12/16 12:21:27;;;;;;;24.17;22.87;;;;;;;;;;5092078;28;20581;-75
2021/12/16 12:23:55;;;;;;;22.47;21.47;;;;;;;;;;5092137;28;20196;-76
2021/12/16 12:26:23;;;;;;;22.27;21.27;;;;;;;;;;5092465;28;20204;-76
2021/12/16 12:28:51;;;;;;;22.13;20.97;;;;;;;;;;5092382;28;20190;-77
2021/12/16 12:31:20;;;;;;;21.77;20.67;;;;;;;;;;5092488;28;20248;-77
2021/12/16 12:33:47;;;;;;;18.93;18.10;;;;;;;;;;5092859;28;20193;-75
2021/12/16 12:36:16;;;;;;;21.20;20.13;;;;;;;;;;5092375;28;20197;-78
2021/12/16 12:38:43;;;;;;;21.57;20.50;;;;;;;;;;5091901;28;20225;-76
2021/12/16 12:41:10;;;;;;;20.47;19.37;;;;;;;;;;5092213;28;20201;-77
2021/12/16 12:43:37;;;;;;;20.10;19.20;;;;;;;;;;5091952;28;20295;-76
2021/12/16 12:46:05;;;;;;;20.20;19.17;;;;;;;;;;5092267;28;20204;-74
2021/12/16 12:48:33;;;;;;;20.13;19.13;;;;;;;;;;5091931;28;20208;-76
2021/12/16 12:51:00;;;;;;;20.23;19.23;;;;;;;;;;5091911;28;20200;-82
2021/12/16 12:53:32;;;;;;;19.13;18.30;;;;;;;;;;5092398;28;20259;-76
2021/12/16 12:56:08;;;;;;;20.53;19.53;;;;;;;;;;5092020;28;20709;-76
2021/12/16 12:58:48;;;;;;;20.30;19.40;;;;;;;;;;5092255;28;20300;-77
2021/12/16 13:01:14;;;;;;;21.97;20.83;;;;;;;;;;5096091;28;20185;-76
2021/12/16 13:03:42;;;;;;;20.97;20.07;;;;;;;;;;5095516;28;20202;-76
2021/12/16 13:06:09;;;;;;;31.83;22.63;;;;;;;;;;5095678;28;20186;-75
2021/12/16 13:08:39;;;;;;;21.47;20.17;;;;;;;;;;5095880;28;20233;-76
2021/12/16 13:11:08;;;;;;;20.57;19.63;;;;;;;;;;5095835;28;20248;-76
2021/12/16 13:13:42;;;;;;;19.70;18.53;;;;;;;;;;5095493;28;20197;-78
2021/12/16 13:16:38;;;;;;;25.83;24.53;;;;;;;;;;5095800;28;20186;-75
2021/12/16 13:25:49;;;;;;;19.43;18.63;;;;;;;;;;5095683;28;20177;-77
2021/12/16 13:28:16;;;;;;;20.77;19.80;;;;;;;;;;5095179;28;20202;-76
2021/12/16 13:30:53;;;;;;;21.90;20.70;;;;;;;;;;5095471;28;20196;-76
2021/12/16 13:33:24;;;;;;;19.37;18.40;;;;;;;;;;5095456;28;20287;-78
2021/12/16 13:36:00;;;;;;;19.30;18.40;;;;;;;;;;5095138;28;20243;-76
2021/12/16 13:38:36;;;;;;;19.50;18.60;;;;;;;;;;5095323;28;20265;-76
2021/12/16 13:41:08;;;;;;;18.53;17.73;;;;;;;;;;5095624;28;20185;-76
2021/12/16 13:43:37;;;;;;;27.57;26.27;;;;;;;;;;5095194;28;20558;-77
2021/12/16 13:46:25;;;;;;;24.93;23.83;;;;;;;;;;5094925;28;20652;-76
2021/12/16 13:58:11;;;;;;;23.77;22.70;;;;;;;;;;5095251;28;20190;-76
2021/12/16 14:03:03;;;;;;;21.23;20.13;;;;;;;;;;5094654;28;20327;-79
2021/12/16 14:05:43;;;;;;;20.27;19.37;;;;;;;;;;5094421;28;20283;-76
2021/12/16 14:08:12;;;;;;;20.17;19.27;;;;;;;;;;5094836;28;20193;-77
2021/12/16 14:10:49;;;;;;;20.10;19.20;;;;;;;;;;5094026;28;20201;-75
2021/12/16 14:16:39;;;;;;;19.67;18.77;;;;;;;;;;5094918;28;20181;-76
2021/12/16 14:39:39;;;;;;;18.93;17.90;;;;;;;;;;5109803;28;20338;-77
2021/12/16 14:42:11;;;;;;;20.07;18.93;;;;;;;;;;5109699;28;20219;-77
2021/12/16 14:47:55;;;;;;;18.30;17.50;;;;;;;;;;5110448;28;20667;-75
2021/12/16 14:50:24;;;;;;;21.10;20.00;;;;;;;;;;5109750;28;20238;-75
2021/12/16 14:52:52;;;;;;;20.80;19.60;;;;;;;;;;5109940;28;20254;-77
2021/12/16 14:55:20;;;;;;;22.27;21.17;;;;;;;;;;5109537;28;20785;-77
2021/12/16 14:57:48;;;;;;;22.67;21.50;;;;;;;;;;5109574;28;20233;-75
2021/12/16 15:00:16;;;;;;;24.43;23.03;;;;;;;;;;5109845;28;20571;-76
2021/12/16 15:02:45;;;;;;;24.17;22.77;;;;;;;;;;5109479;28;20663;-75
2021/12/16 15:05:22;;;;;;;26.67;25.00;;;;;;;;;;5109458;28;20197;-76
2021/12/16 15:07:49;;;;;;;24.43;23.13;;;;;;;;;;5109706;28;20197;-77
2021/12/16 15:10:17;;;;;;;22.60;21.50;;;;;;;;;;5109653;28;20659;-75
2021/12/16 15:12:50;;;;;;;20.70;19.80;;;;;;;;;;5109244;28;20283;-76
2021/12/16 15:15:25;;;;;;;20.43;19.50;;;;;;;;;;5109214;28;20687;-76
2021/12/16 15:37:29;;;;;;;20.07;18.70;;;;;;;;;;5108832;28;20280;-75
2021/12/16 15:40:11;;;;;;;21.87;20.40;;;;;;;;;;5109156;28;20218;-76
2021/12/16 15:42:47;;;;;;;20.00;19.10;;;;;;;;;;5109062;28;20186;-76
2021/12/16 15:45:17;;;;;;;19.80;18.90;;;;;;;;;;5109011;28;20657;-76
2021/12/16 15:47:45;;;;;;;22.60;21.60;;;;;;;;;;5094868;28;20198;-76
2021/12/16 15:50:13;;;;;;;20.73;19.37;;;;;;;;;;5094974;28;20198;-76
2021/12/16 15:52:40;;;;;;;25.13;23.67;;;;;;;;;;5095244;28;20276;-76
2021/12/16 15:55:08;;;;;;;22.33;21.10;;;;;;;;;;5095142;28;20239;-76
2021/12/16 15:57:35;;;;;;;23.73;22.23;;;;;;;;;;5094865;28;20684;-75
2021/12/16 16:00:12;;;;;;;19.93;19.03;;;;;;;;;;5095281;28;20204;-76
2021/12/16 16:02:39;;;;;;;24.27;22.87;;;;;;;;;;5094867;28;20272;-76
2021/12/16 16:05:06;;;;;;;24.80;23.40;;;;;;;;;;5095887;28;20198;-76
2021/12/16 16:07:33;;;;;;;22.90;21.80;;;;;;;;;;5094966;28;20282;-75
2021/12/16 16:10:00;;;;;;;20.10;19.20;;;;;;;;;;5094946;28;20617;-77
2021/12/16 16:12:30;;;;;;;22.60;21.13;;;;;;;;;;5094559;28;20190;-75
2021/12/16 16:15:05;;;;;;;24.73;23.43;;;;;;;;;;5095796;28;20275;-77
2021/12/16 16:17:45;;;;;;;22.47;21.30;;;;;;;;;;5094719;28;20213;-76
2021/12/16 16:20:12;;;;;;;23.50;22.40;;;;;;;;;;5094815;28;20196;-76
2021/12/16 16:22:39;;;;;;;22.60;21.37;;;;;;;;;;5094329;28;20225;-75
2021/12/16 16:25:06;;;;;;;27.97;26.57;;;;;;;;;;5094708;28;20230;-76
2021/12/16 16:27:33;;;;;;;25.93;24.27;;;;;;;;;;5094591;28;20285;-76
2021/12/16 16:30:00;;;;;;;22.93;21.90;;;;;;;;;;5094251;28;20194;-76
2021/12/16 16:32:30;;;;;;;23.77;22.77;;;;;;;;;;5094485;28;20198;-75
2021/12/16 16:35:00;;;;;;;27.27;25.80;;;;;;;;;;5094104;28;20240;-77
2021/12/16 16:37:28;;;;;;;21.63;20.40;;;;;;;;;;5094046;28;20281;-76
2021/12/16 16:39:59;;;;;;;26.37;24.87;;;;;;;;;;5094069;28;20675;-76
2021/12/16 16:42:31;;;;;;;23.27;22.17;;;;;;;;;;5094418;28;20276;-75
2021/12/16 16:44:58;;;;;;;23.47;22.17;;;;;;;;;;5094346;28;20194;-77
2021/12/16 16:47:31;;;;;;;24.50;23.20;;;;;;;;;;5093952;28;20244;-76
2021/12/16 16:50:01;;;;;;;27.40;25.90;;;;;;;;;;5093915;28;20247;-76
2021/12/16 16:52:29;;;;;;;27.87;26.00;;;;;;;;;;5093781;28;20194;-76
2021/12/16 16:55:02;;;;;;;25.60;24.20;;;;;;;;;;5093671;28;20231;-76
2021/12/16 16:57:29;;;;;;;27.17;25.47;;;;;;;;;;5092938;28;20182;-76
2021/12/16 16:59:57;;;;;;;23.17;21.87;;;;;;;;;;5093469;28;20284;-76
2021/12/16 17:02:25;;;;;;;22.30;21.20;;;;;;;;;;5093601;28;20200;-75
2021/12/16 17:04:54;;;;;;;23.90;22.70;;;;;;;;;;5093850;28;20259;-76
2021/12/16 17:07:22;;;;;;;22.63;21.53;;;;;;;;;;5093539;28;20243;-75
2021/12/16 17:09:49;;;;;;;22.70;21.50;;;;;;;;;;5093506;28;20731;-76
2021/12/16 17:12:17;;;;;;;24.83;23.27;;;;;;;;;;5093739;28;20201;-76
2021/12/16 17:14:51;;;;;;;22.87;21.57;;;;;;;;;;5093259;28;20285;-76
2021/12/16 17:17:23;;;;;;;24.63;23.23;;;;;;;;;;5093716;28;20217;-77
2021/12/16 17:20:01;;;;;;;24.90;23.53;;;;;;;;;;5093331;28;20190;-75
2021/12/16 17:22:34;;;;;;;24.50;23.20;;;;;;;;;;5093211;28;20233;-76
2021/12/16 17:25:01;;;;;;;25.50;24.10;;;;;;;;;;5093518;28;20208;-75
2021/12/16 17:27:34;;;;;;;27.10;25.60;;;;;;;;;;5093446;28;20194;-77
2021/12/16 17:30:05;;;;;;;25.37;23.83;;;;;;;;;;5093442;28;20186;-76